sensor_id;sensor_type;location;lat;lon;timestamp;temperature;humidity
23544;DHT22;11950;51.230;4.012;2023-07-31T00:02:02;18.60;99.90
23544;DHT22;11950;51.230;4.012;2023-07-31T00:04:28;18.60;99.90
23544;DHT22;11950;51.230;4.012;2023-07-31T00:06:54;18.60;99.90
23544;DHT22;11950;51.230;4.012;2023-07-31T00:09:21;18.60;99.90
23544;DHT22;11950;51.230;4.012;2023-07-31T00:11:47;18.60;99.90
23544;DHT22;11950;51.230;4.012;2023-07-31T00:14:13;18.60;99.90
23544;DHT22;11950;51.230;4.012;2023-07-31T00:16:39;18.60;99.90
23544;DHT22;11950;51.230;4.012;2023-07-31T00:19:06;18.50;99.90
23544;DHT22;11950;51.230;4.012;2023-07-31T00:21:32;18.50;99.90
23544;DHT22;11950;51.230;4.012;2023-07-31T00:23:58;18.50;99.90
23544;DHT22;11950;51.230;4.012;2023-07-31T00:26:24;18.50;99.90
23544;DHT22;11950;51.230;4.012;2023-07-31T00:28:51;18.50;99.90
23544;DHT22;11950;51.230;4.012;2023-07-31T00:31:17;18.50;99.90
23544;DHT22;11950;51.230;4.012;2023-07-31T00:33:43;18.50;99.90
23544;DHT22;11950;51.230;4.012;2023-07-31T00:36:09;18.50;99.90
23544;DHT22;11950;51.230;4.012;2023-07-31T00:38:36;18.50;99.90
23544;DHT22;11950;51.230;4.012;2023-07-31T00:41:02;18.50;99.90
23544;DHT22;11950;51.230;4.012;2023-07-31T00:43:28;18.50;99.90
23544;DHT22;11950;51.230;4.012;2023-07-31T00:45:55;18.50;99.90
23544;DHT22;11950;51.230;4.012;2023-07-31T00:48:21;18.50;99.90
23544;DHT22;11950;51.230;4.012;2023-07-31T00:50:47;18.50;99.90
23544;DHT22;11950;51.230;4.012;2023-07-31T00:53:15;18.50;99.90
23544;DHT22;11950;51.230;4.012;2023-07-31T00:55:42;18.50;99.90
23544;DHT22;11950;51.230;4.012;2023-07-31T00:58:08;18.50;99.90
23544;DHT22;11950;51.230;4.012;2023-07-31T01:00:34;18.50;99.90
23544;DHT22;11950;51.230;4.012;2023-07-31T01:03:00;18.50;99.90
23544;DHT22;11950;51.230;4.012;2023-07-31T01:05:39;18.50;99.90
23544;DHT22;11950;51.230;4.012;2023-07-31T01:08:15;18.50;99.90
23544;DHT22;11950;51.230;4.012;2023-07-31T01:10:50;18.40;99.90
23544;DHT22;11950;51.230;4.012;2023-07-31T01:13:21;18.40;99.90
23544;DHT22;11950;51.230;4.012;2023-07-31T01:15:47;18.40;99.90
23544;DHT22;11950;51.230;4.012;2023-07-31T01:18:14;18.40;99.90
23544;DHT22;11950;51.230;4.012;2023-07-31T01:20:42;18.40;99.90
23544;DHT22;11950;51.230;4.012;2023-07-31T01:23:41;18.40;99.90
23544;DHT22;11950;51.230;4.012;2023-07-31T01:26:19;18.40;99.90
23544;DHT22;11950;51.230;4.012;2023-07-31T01:28:55;18.40;99.90
23544;DHT22;11950;51.230;4.012;2023-07-31T01:31:26;18.40;99.90
23544;DHT22;11950;51.230;4.012;2023-07-31T01:33:57;18.40;99.90
23544;DHT22;11950;51.230;4.012;2023-07-31T01:36:25;18.40;99.90
23544;DHT22;11950;51.230;4.012;2023-07-31T01:38:52;18.40;99.90
23544;DHT22;11950;51.230;4.012;2023-07-31T01:41:18;18.40;99.90
23544;DHT22;11950;51.230;4.012;2023-07-31T01:43:46;18.40;99.90
23544;DHT22;11950;51.230;4.012;2023-07-31T01:46:12;18.40;99.90
23544;DHT22;11950;51.230;4.012;2023-07-31T01:48:38;18.40;99.90
23544;DHT22;11950;51.230;4.012;2023-07-31T01:51:05;18.40;99.90
23544;DHT22;11950;51.230;4.012;2023-07-31T01:53:32;18.40;99.90
23544;DHT22;11950;51.230;4.012;2023-07-31T01:55:58;18.40;99.90
23544;DHT22;11950;51.230;4.012;2023-07-31T01:58:25;18.40;99.90
23544;DHT22;11950;51.230;4.012;2023-07-31T02:00:51;18.40;99.90
23544;DHT22;11950;51.230;4.012;2023-07-31T02:03:17;18.40;99.90
23544;DHT22;11950;51.230;4.012;2023-07-31T02:05:47;18.40;99.90
23544;DHT22;11950;51.230;4.012;2023-07-31T02:08:15;18.40;99.90
23544;DHT22;11950;51.230;4.012;2023-07-31T02:10:41;18.40;99.90
23544;DHT22;11950;51.230;4.012;2023-07-31T02:13:08;18.40;99.90
23544;DHT22;11950;51.230;4.012;2023-07-31T02:15:34;18.40;99.90
23544;DHT22;11950;51.230;4.012;2023-07-31T02:18:01;18.40;99.90
23544;DHT22;11950;51.230;4.012;2023-07-31T02:20:27;18.40;99.90
23544;DHT22;11950;51.230;4.012;2023-07-31T02:22:53;18.40;99.90
23544;DHT22;11950;51.230;4.012;2023-07-31T02:25:19;18.40;99.90
23544;DHT22;11950;51.230;4.012;2023-07-31T02:27:46;18.40;99.90
23544;DHT22;11950;51.230;4.012;2023-07-31T02:30:12;18.40;99.90
23544;DHT22;11950;51.230;4.012;2023-07-31T02:32:38;18.40;99.90
23544;DHT22;11950;51.230;4.012;2023-07-31T02:35:05;18.40;99.90
23544;DHT22;11950;51.230;4.012;2023-07-31T02:37:31;18.40;99.90
23544;DHT22;11950;51.230;4.012;2023-07-31T02:39:57;18.40;99.90
23544;DHT22;11950;51.230;4.012;2023-07-31T02:42:23;18.40;99.90
23544;DHT22;11950;51.230;4.012;2023-07-31T02:44:50;18.40;99.90
23544;DHT22;11950;51.230;4.012;2023-07-31T02:47:22;18.40;99.90
23544;DHT22;11950;51.230;4.012;2023-07-31T02:49:48;18.40;99.90
23544;DHT22;11950;51.230;4.012;2023-07-31T02:52:17;18.40;99.90
23544;DHT22;11950;51.230;4.012;2023-07-31T02:54:43;18.40;99.90
23544;DHT22;11950;51.230;4.012;2023-07-31T02:57:09;18.40;99.90
23544;DHT22;11950;51.230;4.012;2023-07-31T02:59:36;18.40;99.90
23544;DHT22;11950;51.230;4.012;2023-07-31T03:02:02;18.40;99.90
23544;DHT22;11950;51.230;4.012;2023-07-31T03:04:28;18.40;99.90
23544;DHT22;11950;51.230;4.012;2023-07-31T03:06:55;18.40;99.90
23544;DHT22;11950;51.230;4.012;2023-07-31T03:09:21;18.40;99.90
23544;DHT22;11950;51.230;4.012;2023-07-31T03:11:48;18.50;99.90
23544;DHT22;11950;51.230;4.012;2023-07-31T03:14:14;18.50;99.90
23544;DHT22;11950;51.230;4.012;2023-07-31T03:16:40;18.50;99.90
23544;DHT22;11950;51.230;4.012;2023-07-31T03:19:06;18.50;99.90
23544;DHT22;11950;51.230;4.012;2023-07-31T03:21:33;18.50;99.90
23544;DHT22;11950;51.230;4.012;2023-07-31T03:23:59;18.50;99.90
23544;DHT22;11950;51.230;4.012;2023-07-31T03:26:25;18.50;99.90
23544;DHT22;11950;51.230;4.012;2023-07-31T03:28:51;18.50;99.90
23544;DHT22;11950;51.230;4.012;2023-07-31T03:31:17;18.50;99.90
23544;DHT22;11950;51.230;4.012;2023-07-31T03:33:44;18.50;99.90
23544;DHT22;11950;51.230;4.012;2023-07-31T03:36:10;18.50;99.90
23544;DHT22;11950;51.230;4.012;2023-07-31T03:38:36;18.50;99.90
23544;DHT22;11950;51.230;4.012;2023-07-31T03:41:02;18.50;99.90
23544;DHT22;11950;51.230;4.012;2023-07-31T03:43:29;18.50;99.90
23544;DHT22;11950;51.230;4.012;2023-07-31T03:45:55;18.50;99.90
23544;DHT22;11950;51.230;4.012;2023-07-31T03:48:21;18.50;99.90
23544;DHT22;11950;51.230;4.012;2023-07-31T03:50:47;18.50;99.90
23544;DHT22;11950;51.230;4.012;2023-07-31T03:53:14;18.40;99.90
23544;DHT22;11950;51.230;4.012;2023-07-31T03:55:40;18.50;99.90
23544;DHT22;11950;51.230;4.012;2023-07-31T03:58:06;18.50;99.90
23544;DHT22;11950;51.230;4.012;2023-07-31T04:00:33;18.40;99.90
23544;DHT22;11950;51.230;4.012;2023-07-31T04:02:59;18.50;99.90
23544;DHT22;11950;51.230;4.012;2023-07-31T04:05:25;18.40;99.90
23544;DHT22;11950;51.230;4.012;2023-07-31T04:07:51;18.40;99.90
23544;DHT22;11950;51.230;4.012;2023-07-31T04:10:18;18.40;99.90
23544;DHT22;11950;51.230;4.012;2023-07-31T04:12:44;18.40;99.90
23544;DHT22;11950;51.230;4.012;2023-07-31T04:15:10;18.40;99.90
23544;DHT22;11950;51.230;4.012;2023-07-31T04:17:36;18.40;99.90
23544;DHT22;11950;51.230;4.012;2023-07-31T04:20:03;18.40;99.90
23544;DHT22;11950;51.230;4.012;2023-07-31T04:22:29;18.40;99.90
23544;DHT22;11950;51.230;4.012;2023-07-31T04:24:55;18.40;99.90
23544;DHT22;11950;51.230;4.012;2023-07-31T04:27:21;18.40;99.90
23544;DHT22;11950;51.230;4.012;2023-07-31T04:29:48;18.40;99.90
23544;DHT22;11950;51.230;4.012;2023-07-31T04:32:14;18.40;99.90
23544;DHT22;11950;51.230;4.012;2023-07-31T04:34:43;18.40;99.90
23544;DHT22;11950;51.230;4.012;2023-07-31T04:37:09;18.40;99.90
23544;DHT22;11950;51.230;4.012;2023-07-31T04:39:35;18.40;99.90
23544;DHT22;11950;51.230;4.012;2023-07-31T04:42:02;18.40;99.90
23544;DHT22;11950;51.230;4.012;2023-07-31T04:44:28;18.40;99.90
23544;DHT22;11950;51.230;4.012;2023-07-31T04:46:54;18.40;99.90
23544;DHT22;11950;51.230;4.012;2023-07-31T04:49:20;18.50;99.90
23544;DHT22;11950;51.230;4.012;2023-07-31T04:51:47;18.50;99.90
23544;DHT22;11950;51.230;4.012;2023-07-31T04:54:13;18.50;99.90
23544;DHT22;11950;51.230;4.012;2023-07-31T04:56:41;18.50;99.90
23544;DHT22;11950;51.230;4.012;2023-07-31T04:59:07;18.50;99.90
23544;DHT22;11950;51.230;4.012;2023-07-31T05:01:33;18.50;99.90
23544;DHT22;11950;51.230;4.012;2023-07-31T05:03:59;18.50;99.90
23544;DHT22;11950;51.230;4.012;2023-07-31T05:06:26;18.50;99.90
23544;DHT22;11950;51.230;4.012;2023-07-31T05:08:53;18.50;99.90
23544;DHT22;11950;51.230;4.012;2023-07-31T05:11:19;18.50;99.90
23544;DHT22;11950;51.230;4.012;2023-07-31T05:13:46;18.50;99.90
23544;DHT22;11950;51.230;4.012;2023-07-31T05:16:12;18.50;99.90
23544;DHT22;11950;51.230;4.012;2023-07-31T05:18:38;18.50;99.90
23544;DHT22;11950;51.230;4.012;2023-07-31T05:21:04;18.50;99.90
23544;DHT22;11950;51.230;4.012;2023-07-31T05:23:30;18.50;99.90
23544;DHT22;11950;51.230;4.012;2023-07-31T05:26:06;18.60;99.90
23544;DHT22;11950;51.230;4.012;2023-07-31T05:28:34;18.50;99.90
23544;DHT22;11950;51.230;4.012;2023-07-31T05:31:02;18.50;99.90
23544;DHT22;11950;51.230;4.012;2023-07-31T05:33:28;18.50;99.90
23544;DHT22;11950;51.230;4.012;2023-07-31T05:35:55;18.50;99.90
23544;DHT22;11950;51.230;4.012;2023-07-31T05:38:21;18.50;99.90
23544;DHT22;11950;51.230;4.012;2023-07-31T05:40:47;18.50;99.90
23544;DHT22;11950;51.230;4.012;2023-07-31T05:43:14;18.50;99.90
23544;DHT22;11950;51.230;4.012;2023-07-31T05:45:42;18.50;99.90
23544;DHT22;11950;51.230;4.012;2023-07-31T05:48:08;18.60;99.90
23544;DHT22;11950;51.230;4.012;2023-07-31T05:50:34;18.60;99.90
23544;DHT22;11950;51.230;4.012;2023-07-31T05:53:01;18.60;99.90
23544;DHT22;11950;51.230;4.012;2023-07-31T05:55:27;18.60;99.90
23544;DHT22;11950;51.230;4.012;2023-07-31T05:57:54;18.60;99.90
23544;DHT22;11950;51.230;4.012;2023-07-31T06:00:20;18.60;99.90
23544;DHT22;11950;51.230;4.012;2023-07-31T06:02:47;18.60;99.90
23544;DHT22;11950;51.230;4.012;2023-07-31T06:05:14;18.70;99.90
23544;DHT22;11950;51.230;4.012;2023-07-31T06:07:40;18.70;99.90
23544;DHT22;11950;51.230;4.012;2023-07-31T06:10:07;18.70;99.90
23544;DHT22;11950;51.230;4.012;2023-07-31T06:12:35;18.70;99.90
23544;DHT22;11950;51.230;4.012;2023-07-31T06:15:02;18.70;99.90
23544;DHT22;11950;51.230;4.012;2023-07-31T06:17:29;18.70;99.90
23544;DHT22;11950;51.230;4.012;2023-07-31T06:19:56;18.70;99.90
23544;DHT22;11950;51.230;4.012;2023-07-31T06:22:23;18.80;99.90
23544;DHT22;11950;51.230;4.012;2023-07-31T06:24:49;18.80;99.90
23544;DHT22;11950;51.230;4.012;2023-07-31T06:27:15;18.80;99.90
23544;DHT22;11950;51.230;4.012;2023-07-31T06:29:42;18.80;99.90
23544;DHT22;11950;51.230;4.012;2023-07-31T06:32:08;18.80;99.90
23544;DHT22;11950;51.230;4.012;2023-07-31T06:34:34;18.80;99.90
23544;DHT22;11950;51.230;4.012;2023-07-31T06:37:01;18.90;99.90
23544;DHT22;11950;51.230;4.012;2023-07-31T06:39:27;18.90;99.90
23544;DHT22;11950;51.230;4.012;2023-07-31T06:41:53;18.90;99.90
23544;DHT22;11950;51.230;4.012;2023-07-31T06:44:20;18.90;99.90
23544;DHT22;11950;51.230;4.012;2023-07-31T06:46:46;18.80;99.90
23544;DHT22;11950;51.230;4.012;2023-07-31T06:49:12;18.80;99.90
23544;DHT22;11950;51.230;4.012;2023-07-31T06:51:41;18.90;99.90
23544;DHT22;11950;51.230;4.012;2023-07-31T06:54:10;18.90;99.90
23544;DHT22;11950;51.230;4.012;2023-07-31T06:56:37;18.90;99.90
23544;DHT22;11950;51.230;4.012;2023-07-31T06:59:04;18.90;99.90
23544;DHT22;11950;51.230;4.012;2023-07-31T07:01:30;18.90;99.90
23544;DHT22;11950;51.230;4.012;2023-07-31T07:03:57;19.00;99.90
23544;DHT22;11950;51.230;4.012;2023-07-31T07:06:23;18.90;99.90
23544;DHT22;11950;51.230;4.012;2023-07-31T07:08:49;18.90;99.90
23544;DHT22;11950;51.230;4.012;2023-07-31T07:11:15;18.90;99.90
23544;DHT22;11950;51.230;4.012;2023-07-31T07:13:42;19.00;99.90
23544;DHT22;11950;51.230;4.012;2023-07-31T07:16:08;19.00;99.90
23544;DHT22;11950;51.230;4.012;2023-07-31T07:18:36;19.00;99.90
23544;DHT22;11950;51.230;4.012;2023-07-31T07:21:02;19.00;99.90
23544;DHT22;11950;51.230;4.012;2023-07-31T07:23:29;19.00;99.90
23544;DHT22;11950;51.230;4.012;2023-07-31T07:25:55;19.00;99.90
23544;DHT22;11950;51.230;4.012;2023-07-31T07:28:21;19.00;99.90
23544;DHT22;11950;51.230;4.012;2023-07-31T07:30:51;19.00;99.90
23544;DHT22;11950;51.230;4.012;2023-07-31T07:33:19;19.00;99.90
23544;DHT22;11950;51.230;4.012;2023-07-31T07:35:45;19.00;99.90
23544;DHT22;11950;51.230;4.012;2023-07-31T07:38:11;19.00;99.90
23544;DHT22;11950;51.230;4.012;2023-07-31T07:40:40;19.10;99.90
23544;DHT22;11950;51.230;4.012;2023-07-31T07:43:07;19.10;99.90
23544;DHT22;11950;51.230;4.012;2023-07-31T07:45:33;19.10;99.90
23544;DHT22;11950;51.230;4.012;2023-07-31T07:47:59;19.10;99.90
23544;DHT22;11950;51.230;4.012;2023-07-31T07:50:25;19.20;99.90
23544;DHT22;11950;51.230;4.012;2023-07-31T07:52:52;19.20;99.90
23544;DHT22;11950;51.230;4.012;2023-07-31T07:55:18;19.30;99.90
23544;DHT22;11950;51.230;4.012;2023-07-31T07:57:44;19.30;99.90
23544;DHT22;11950;51.230;4.012;2023-07-31T08:00:12;19.30;99.90
23544;DHT22;11950;51.230;4.012;2023-07-31T08:02:42;19.40;99.90
23544;DHT22;11950;51.230;4.012;2023-07-31T08:05:08;19.40;99.90
23544;DHT22;11950;51.230;4.012;2023-07-31T08:07:35;19.40;99.90
23544;DHT22;11950;51.230;4.012;2023-07-31T08:10:01;19.40;99.90
23544;DHT22;11950;51.230;4.012;2023-07-31T08:12:28;19.50;99.90
23544;DHT22;11950;51.230;4.012;2023-07-31T08:14:54;19.50;99.90
23544;DHT22;11950;51.230;4.012;2023-07-31T08:17:20;19.50;99.90
23544;DHT22;11950;51.230;4.012;2023-07-31T08:19:46;19.50;99.90
23544;DHT22;11950;51.230;4.012;2023-07-31T08:22:13;19.50;99.90
23544;DHT22;11950;51.230;4.012;2023-07-31T08:24:40;19.50;99.90
23544;DHT22;11950;51.230;4.012;2023-07-31T08:27:07;19.50;99.90
23544;DHT22;11950;51.230;4.012;2023-07-31T08:29:33;19.50;99.90
23544;DHT22;11950;51.230;4.012;2023-07-31T08:31:59;19.60;99.90
23544;DHT22;11950;51.230;4.012;2023-07-31T08:34:25;19.60;99.90
23544;DHT22;11950;51.230;4.012;2023-07-31T08:36:52;19.70;99.90
23544;DHT22;11950;51.230;4.012;2023-07-31T08:39:18;19.70;99.90
23544;DHT22;11950;51.230;4.012;2023-07-31T08:41:44;19.70;99.90
23544;DHT22;11950;51.230;4.012;2023-07-31T08:44:12;19.70;99.90
23544;DHT22;11950;51.230;4.012;2023-07-31T08:46:40;19.70;99.90
23544;DHT22;11950;51.230;4.012;2023-07-31T08:49:07;19.80;99.90
23544;DHT22;11950;51.230;4.012;2023-07-31T08:51:36;19.80;99.90
23544;DHT22;11950;51.230;4.012;2023-07-31T08:54:03;19.90;99.90
23544;DHT22;11950;51.230;4.012;2023-07-31T08:56:32;19.90;99.90
23544;DHT22;11950;51.230;4.012;2023-07-31T08:59:02;20.00;99.90
23544;DHT22;11950;51.230;4.012;2023-07-31T09:01:29;20.00;99.90
23544;DHT22;11950;51.230;4.012;2023-07-31T09:03:59;20.00;99.90
23544;DHT22;11950;51.230;4.012;2023-07-31T09:06:28;20.00;99.90
23544;DHT22;11950;51.230;4.012;2023-07-31T09:08:55;20.00;99.90
23544;DHT22;11950;51.230;4.012;2023-07-31T09:11:23;20.00;99.90
23544;DHT22;11950;51.230;4.012;2023-07-31T09:13:50;20.00;99.90
23544;DHT22;11950;51.230;4.012;2023-07-31T09:16:18;20.00;99.90
23544;DHT22;11950;51.230;4.012;2023-07-31T09:18:54;20.00;99.90
23544;DHT22;11950;51.230;4.012;2023-07-31T09:21:23;20.10;99.90
23544;DHT22;11950;51.230;4.012;2023-07-31T09:23:50;20.00;99.90
23544;DHT22;11950;51.230;4.012;2023-07-31T09:26:35;20.10;99.90
23544;DHT22;11950;51.230;4.012;2023-07-31T09:29:05;20.10;99.90
23544;DHT22;11950;51.230;4.012;2023-07-31T09:31:43;20.10;99.90
23544;DHT22;11950;51.230;4.012;2023-07-31T09:34:09;20.10;99.90
23544;DHT22;11950;51.230;4.012;2023-07-31T09:36:47;20.10;99.90
23544;DHT22;11950;51.230;4.012;2023-07-31T09:39:16;20.10;99.90
23544;DHT22;11950;51.230;4.012;2023-07-31T09:41:44;20.20;99.90
23544;DHT22;11950;51.230;4.012;2023-07-31T09:44:11;20.10;99.90
23544;DHT22;11950;51.230;4.012;2023-07-31T09:46:38;20.10;99.90
23544;DHT22;11950;51.230;4.012;2023-07-31T09:49:11;20.10;99.90
23544;DHT22;11950;51.230;4.012;2023-07-31T09:51:42;20.20;99.90
23544;DHT22;11950;51.230;4.012;2023-07-31T09:54:11;20.20;99.90
23544;DHT22;11950;51.230;4.012;2023-07-31T09:56:48;20.30;99.90
23544;DHT22;11950;51.230;4.012;2023-07-31T09:59:17;20.30;99.90
23544;DHT22;11950;51.230;4.012;2023-07-31T10:01:45;20.30;99.90
23544;DHT22;11950;51.230;4.012;2023-07-31T10:04:12;20.30;99.90
23544;DHT22;11950;51.230;4.012;2023-07-31T10:06:40;20.30;99.90
23544;DHT22;11950;51.230;4.012;2023-07-31T10:09:09;20.40;99.90
23544;DHT22;11950;51.230;4.012;2023-07-31T10:12:02;20.40;99.90
23544;DHT22;11950;51.230;4.012;2023-07-31T10:14:32;20.40;99.90
23544;DHT22;11950;51.230;4.012;2023-07-31T10:16:59;20.50;99.90
23544;DHT22;11950;51.230;4.012;2023-07-31T10:19:26;20.60;99.90
23544;DHT22;11950;51.230;4.012;2023-07-31T10:21:53;20.60;99.90
23544;DHT22;11950;51.230;4.012;2023-07-31T10:24:23;20.60;99.90
23544;DHT22;11950;51.230;4.012;2023-07-31T10:26:51;20.60;99.90
23544;DHT22;11950;51.230;4.012;2023-07-31T10:29:19;20.70;99.90
23544;DHT22;11950;51.230;4.012;2023-07-31T10:31:46;20.70;99.90
23544;DHT22;11950;51.230;4.012;2023-07-31T10:34:14;20.80;99.90
23544;DHT22;11950;51.230;4.012;2023-07-31T10:36:40;20.90;99.90
23544;DHT22;11950;51.230;4.012;2023-07-31T10:39:33;21.00;99.90
23544;DHT22;11950;51.230;4.012;2023-07-31T10:42:02;21.10;99.90
23544;DHT22;11950;51.230;4.012;2023-07-31T10:44:35;21.10;99.90
23544;DHT22;11950;51.230;4.012;2023-07-31T10:47:01;21.20;99.90
23544;DHT22;11950;51.230;4.012;2023-07-31T10:49:29;21.20;99.90
23544;DHT22;11950;51.230;4.012;2023-07-31T10:51:57;21.20;99.90
23544;DHT22;11950;51.230;4.012;2023-07-31T10:54:23;21.30;99.90
23544;DHT22;11950;51.230;4.012;2023-07-31T10:56:50;21.30;99.90
23544;DHT22;11950;51.230;4.012;2023-07-31T10:59:16;21.30;99.90
23544;DHT22;11950;51.230;4.012;2023-07-31T11:01:54;21.20;99.90
23544;DHT22;11950;51.230;4.012;2023-07-31T11:04:24;21.10;99.90
23544;DHT22;11950;51.230;4.012;2023-07-31T11:07:01;21.10;99.90
23544;DHT22;11950;51.230;4.012;2023-07-31T11:09:30;21.10;99.90
23544;DHT22;11950;51.230;4.012;2023-07-31T11:11:57;21.10;99.90
23544;DHT22;11950;51.230;4.012;2023-07-31T11:14:24;21.00;99.90
23544;DHT22;11950;51.230;4.012;2023-07-31T11:16:51;21.00;99.90
23544;DHT22;11950;51.230;4.012;2023-07-31T11:19:24;21.00;99.90
23544;DHT22;11950;51.230;4.012;2023-07-31T11:21:52;21.00;99.90
23544;DHT22;11950;51.230;4.012;2023-07-31T11:24:19;21.00;99.90
23544;DHT22;11950;51.230;4.012;2023-07-31T11:26:52;21.00;99.90
23544;DHT22;11950;51.230;4.012;2023-07-31T11:29:20;21.00;99.90
23544;DHT22;11950;51.230;4.012;2023-07-31T11:31:47;21.00;99.90
23544;DHT22;11950;51.230;4.012;2023-07-31T11:34:13;21.10;99.90
23544;DHT22;11950;51.230;4.012;2023-07-31T11:36:40;21.10;99.90
23544;DHT22;11950;51.230;4.012;2023-07-31T11:39:08;21.10;99.90
23544;DHT22;11950;51.230;4.012;2023-07-31T11:41:34;21.10;99.90
23544;DHT22;11950;51.230;4.012;2023-07-31T11:44:01;21.10;99.90
23544;DHT22;11950;51.230;4.012;2023-07-31T11:46:30;21.20;99.90
23544;DHT22;11950;51.230;4.012;2023-07-31T11:49:01;21.20;99.90
23544;DHT22;11950;51.230;4.012;2023-07-31T11:51:28;21.20;99.90
23544;DHT22;11950;51.230;4.012;2023-07-31T11:54:01;21.20;99.90
23544;DHT22;11950;51.230;4.012;2023-07-31T11:56:28;21.30;99.90
23544;DHT22;11950;51.230;4.012;2023-07-31T11:58:59;21.30;99.90
23544;DHT22;11950;51.230;4.012;2023-07-31T12:01:26;21.30;99.90
23544;DHT22;11950;51.230;4.012;2023-07-31T12:03:56;21.30;99.90
23544;DHT22;11950;51.230;4.012;2023-07-31T12:06:35;21.30;99.90
23544;DHT22;11950;51.230;4.012;2023-07-31T12:09:05;21.30;99.90
23544;DHT22;11950;51.230;4.012;2023-07-31T12:11:31;21.30;99.90
23544;DHT22;11950;51.230;4.012;2023-07-31T12:14:08;21.30;99.90
23544;DHT22;11950;51.230;4.012;2023-07-31T12:16:35;21.40;99.90
23544;DHT22;11950;51.230;4.012;2023-07-31T12:19:02;21.40;99.90
23544;DHT22;11950;51.230;4.012;2023-07-31T12:21:28;21.40;99.90
23544;DHT22;11950;51.230;4.012;2023-07-31T12:23:55;21.40;99.90
23544;DHT22;11950;51.230;4.012;2023-07-31T12:26:21;21.40;99.90
23544;DHT22;11950;51.230;4.012;2023-07-31T12:28:50;21.30;99.90
23544;DHT22;11950;51.230;4.012;2023-07-31T12:31:18;21.40;99.90
23544;DHT22;11950;51.230;4.012;2023-07-31T12:33:47;21.30;99.90
23544;DHT22;11950;51.230;4.012;2023-07-31T12:36:17;21.30;99.90
23544;DHT22;11950;51.230;4.012;2023-07-31T12:38:44;21.20;99.90
23544;DHT22;11950;51.230;4.012;2023-07-31T12:41:12;21.20;99.90
23544;DHT22;11950;51.230;4.012;2023-07-31T12:43:40;21.20;99.90
23544;DHT22;11950;51.230;4.012;2023-07-31T12:46:07;21.20;99.90
23544;DHT22;11950;51.230;4.012;2023-07-31T12:48:34;21.20;99.90
23544;DHT22;11950;51.230;4.012;2023-07-31T12:51:01;21.20;99.90
23544;DHT22;11950;51.230;4.012;2023-07-31T12:53:28;21.20;99.90
23544;DHT22;11950;51.230;4.012;2023-07-31T12:55:56;21.10;99.90
23544;DHT22;11950;51.230;4.012;2023-07-31T12:58:22;21.10;99.90
23544;DHT22;11950;51.230;4.012;2023-07-31T13:00:49;21.10;99.90
23544;DHT22;11950;51.230;4.012;2023-07-31T13:03:15;21.00;99.90
23544;DHT22;11950;51.230;4.012;2023-07-31T13:05:41;21.00;99.90
23544;DHT22;11950;51.230;4.012;2023-07-31T13:08:08;21.00;99.90
23544;DHT22;11950;51.230;4.012;2023-07-31T13:10:34;21.10;99.90
23544;DHT22;11950;51.230;4.012;2023-07-31T13:13:00;21.00;99.90
23544;DHT22;11950;51.230;4.012;2023-07-31T13:15:26;21.00;99.90
23544;DHT22;11950;51.230;4.012;2023-07-31T13:17:53;21.00;99.90
23544;DHT22;11950;51.230;4.012;2023-07-31T13:20:19;21.00;99.90
23544;DHT22;11950;51.230;4.012;2023-07-31T13:22:45;21.00;99.90
23544;DHT22;11950;51.230;4.012;2023-07-31T13:25:11;20.90;99.90
23544;DHT22;11950;51.230;4.012;2023-07-31T13:27:37;20.90;99.90
23544;DHT22;11950;51.230;4.012;2023-07-31T13:30:04;20.80;99.90
23544;DHT22;11950;51.230;4.012;2023-07-31T13:32:31;20.80;99.90
23544;DHT22;11950;51.230;4.012;2023-07-31T13:34:57;20.80;99.90
23544;DHT22;11950;51.230;4.012;2023-07-31T13:37:23;20.80;99.90
23544;DHT22;11950;51.230;4.012;2023-07-31T13:39:49;20.80;99.90
23544;DHT22;11950;51.230;4.012;2023-07-31T13:42:15;20.70;99.90
23544;DHT22;11950;51.230;4.012;2023-07-31T13:44:42;20.70;99.90
23544;DHT22;11950;51.230;4.012;2023-07-31T13:47:09;20.70;99.90
23544;DHT22;11950;51.230;4.012;2023-07-31T13:49:35;20.70;99.90
23544;DHT22;11950;51.230;4.012;2023-07-31T13:52:03;20.70;99.90
23544;DHT22;11950;51.230;4.012;2023-07-31T13:54:29;20.60;99.90
23544;DHT22;11950;51.230;4.012;2023-07-31T13:56:55;20.60;99.90
23544;DHT22;11950;51.230;4.012;2023-07-31T13:59:21;20.60;99.90
23544;DHT22;11950;51.230;4.012;2023-07-31T14:01:48;20.60;99.90
23544;DHT22;11950;51.230;4.012;2023-07-31T14:04:14;20.60;99.90
23544;DHT22;11950;51.230;4.012;2023-07-31T14:06:40;20.60;99.90
23544;DHT22;11950;51.230;4.012;2023-07-31T14:09:07;20.50;99.90
23544;DHT22;11950;51.230;4.012;2023-07-31T14:11:33;20.50;99.90
23544;DHT22;11950;51.230;4.012;2023-07-31T14:14:00;20.50;99.90
23544;DHT22;11950;51.230;4.012;2023-07-31T14:16:28;20.50;99.90
23544;DHT22;11950;51.230;4.012;2023-07-31T14:18:54;20.50;99.90
23544;DHT22;11950;51.230;4.012;2023-07-31T14:21:20;20.40;99.90
23544;DHT22;11950;51.230;4.012;2023-07-31T14:23:47;20.40;99.90
23544;DHT22;11950;51.230;4.012;2023-07-31T14:26:13;20.40;99.90
23544;DHT22;11950;51.230;4.012;2023-07-31T14:28:39;20.40;99.90
23544;DHT22;11950;51.230;4.012;2023-07-31T14:31:06;20.40;99.90
23544;DHT22;11950;51.230;4.012;2023-07-31T14:33:32;20.40;99.90
23544;DHT22;11950;51.230;4.012;2023-07-31T14:35:58;20.40;99.90
23544;DHT22;11950;51.230;4.012;2023-07-31T14:38:25;20.40;99.90
23544;DHT22;11950;51.230;4.012;2023-07-31T14:40:51;20.40;99.90
23544;DHT22;11950;51.230;4.012;2023-07-31T14:43:17;20.40;99.90
23544;DHT22;11950;51.230;4.012;2023-07-31T14:45:44;20.40;99.90
23544;DHT22;11950;51.230;4.012;2023-07-31T14:48:12;20.40;99.90
23544;DHT22;11950;51.230;4.012;2023-07-31T14:50:39;20.40;99.90
23544;DHT22;11950;51.230;4.012;2023-07-31T14:53:05;20.30;99.90
23544;DHT22;11950;51.230;4.012;2023-07-31T14:55:31;20.40;99.90
23544;DHT22;11950;51.230;4.012;2023-07-31T14:57:58;20.40;99.90
23544;DHT22;11950;51.230;4.012;2023-07-31T15:00:24;20.40;99.90
23544;DHT22;11950;51.230;4.012;2023-07-31T15:02:52;20.40;99.90
23544;DHT22;11950;51.230;4.012;2023-07-31T15:05:18;20.40;99.90
23544;DHT22;11950;51.230;4.012;2023-07-31T15:07:45;20.40;99.90
23544;DHT22;11950;51.230;4.012;2023-07-31T15:10:11;20.40;99.90
23544;DHT22;11950;51.230;4.012;2023-07-31T15:12:40;20.40;99.90
23544;DHT22;11950;51.230;4.012;2023-07-31T15:15:06;20.40;99.90
23544;DHT22;11950;51.230;4.012;2023-07-31T15:17:33;20.40;99.90
23544;DHT22;11950;51.230;4.012;2023-07-31T15:19:59;20.40;99.90
23544;DHT22;11950;51.230;4.012;2023-07-31T15:22:26;20.50;99.90
23544;DHT22;11950;51.230;4.012;2023-07-31T15:24:52;20.50;99.90
23544;DHT22;11950;51.230;4.012;2023-07-31T15:27:18;20.40;99.90
23544;DHT22;11950;51.230;4.012;2023-07-31T15:29:45;20.40;99.90
23544;DHT22;11950;51.230;4.012;2023-07-31T15:32:11;20.40;99.90